createdAt,value
2018-06-24T00:01:38.586Z,98815.88
2018-06-24T00:04:07.959Z,98802.52
2018-06-24T00:06:37.424Z,98805.47
2018-06-24T00:09:09.578Z,98808.23
2018-06-24T00:11:39.015Z,98804.20
2018-06-24T00:14:08.615Z,98806.11
2018-06-24T00:16:37.834Z,98800.80
2018-06-24T00:19:07.162Z,98798.05
2018-06-24T00:21:36.602Z,98793.55
2018-06-24T00:24:06.630Z,98792.25
2018-06-24T00:26:36.399Z,98795.98
2018-06-24T00:29:06.462Z,98792.39
2018-06-24T00:31:36.390Z,98786.76
2018-06-24T00:34:05.714Z,98790.86
2018-06-24T00:36:34.831Z,98786.87
2018-06-24T00:39:05.994Z,98791.75
2018-06-24T00:41:35.130Z,98787.09
2018-06-24T00:44:04.242Z,98783.13
2018-06-24T00:46:33.329Z,98782.55
2018-06-24T00:49:02.443Z,98780.35
2018-06-24T00:51:32.062Z,98776.18
2018-06-24T00:54:02.470Z,98776.51
2018-06-24T00:56:31.542Z,98777.44
2018-06-24T00:59:01.327Z,98770.78
2018-06-24T01:01:30.426Z,98766.66
2018-06-24T01:03:59.523Z,98765.80
2018-06-24T01:06:28.668Z,98768.34
2018-06-24T01:08:57.838Z,98759.78
2018-06-24T01:11:27.007Z,98765.61
2018-06-24T01:13:56.319Z,98763.99
2018-06-24T01:16:26.106Z,98764.52
2018-06-24T01:18:56.410Z,98760.25
2018-06-24T01:21:25.503Z,98758.94
2018-06-24T01:23:54.642Z,98753.55
2018-06-24T01:26:24.276Z,98751.27
2018-06-24T01:28:53.419Z,98751.74
2018-06-24T01:31:22.576Z,98746.71
2018-06-24T01:33:51.709Z,98748.28
2018-06-24T01:36:22.658Z,98753.19
2018-06-24T01:38:51.794Z,98745.77
2018-06-24T01:41:20.867Z,98755.38
2018-06-24T01:43:49.944Z,98754.47
2018-06-24T01:46:19.058Z,98753.98
2018-06-24T01:48:48.902Z,98747.84
2018-06-24T01:51:17.994Z,98753.22
2018-06-24T01:53:47.098Z,98749.05
2018-06-24T01:56:16.211Z,98740.67
2018-06-24T01:58:45.381Z,98740.05
2018-06-24T02:01:14.502Z,98735.92
2018-06-24T02:03:44.413Z,98739.12
2018-06-24T02:06:13.490Z,98731.48
2018-06-24T02:08:42.603Z,98733.64
2018-06-24T02:11:11.710Z,98729.81
2018-06-24T02:13:40.804Z,98731.23
2018-06-24T02:16:09.878Z,98730.84
2018-06-24T02:18:38.931Z,98725.69
2018-06-24T02:21:08.039Z,98731.92
2018-06-24T02:23:37.086Z,98730.38
2018-06-24T02:26:06.187Z,98732.33
2018-06-24T02:28:35.283Z,98730.95
2018-06-24T02:31:04.382Z,98730.83
2018-06-24T02:33:37.666Z,98726.08
2018-06-24T02:36:07.547Z,98726.70
2018-06-24T02:38:37.705Z,98723.26
2018-06-24T02:41:07.255Z,98725.74
2018-06-24T02:43:36.359Z,98716.23
2018-06-24T02:46:05.702Z,98718.44
2018-06-24T02:48:34.852Z,98715.59
2018-06-24T02:51:03.987Z,98717.08
2018-06-24T02:53:33.496Z,98714.05
2018-06-24T02:56:02.550Z,98709.27
2018-06-24T02:58:31.688Z,98710.57
2018-06-24T03:01:00.847Z,98711.02
2018-06-24T03:03:29.973Z,98707.39
2018-06-24T03:05:59.359Z,98705.48
2018-06-24T03:08:28.826Z,98702.91
2018-06-24T03:10:57.972Z,98699.39
2018-06-24T03:13:27.090Z,98690.61
2018-06-24T03:15:56.307Z,98696.70
2018-06-24T03:18:25.407Z,98695.70
2018-06-24T03:20:54.527Z,98702.30
2018-06-24T03:23:24.446Z,98703.52
2018-06-24T03:25:53.546Z,98696.16
2018-06-24T03:28:22.667Z,98697.25
2018-06-24T03:30:51.789Z,98702.09
2018-06-24T03:33:20.923Z,98707.04
2018-06-24T03:35:50.022Z,98706.88
2018-06-24T03:38:18.947Z,98702.20
2018-06-24T03:40:48.079Z,98706.44
2018-06-24T03:43:19.689Z,98704.53
2018-06-24T03:45:48.979Z,98701.69
2018-06-24T03:48:18.767Z,98708.33
2018-06-24T03:50:47.890Z,98705.29
2018-06-24T03:53:16.971Z,98698.59
2018-06-24T03:55:46.090Z,98701.24
2018-06-24T03:58:15.259Z,98698.37
2018-06-24T04:00:44.384Z,98702.00
2018-06-24T04:03:13.514Z,98697.69
2018-06-24T04:05:42.629Z,98696.23
2018-06-24T04:08:11.754Z,98698.80
2018-06-24T04:10:40.894Z,98700.38
2018-06-24T04:13:10.466Z,98698.55
2018-06-24T04:15:39.599Z,98697.69
2018-06-24T04:18:08.718Z,98688.97
2018-06-24T04:20:37.882Z,98698.44
2018-06-24T04:23:06.987Z,98697.23
2018-06-24T04:25:36.166Z,98695.48
2018-06-24T04:28:05.882Z,98699.48
2018-06-24T04:30:35.718Z,98696.59
2018-06-24T04:33:05.247Z,98700.17
2018-06-24T04:35:34.650Z,98697.41
2018-06-24T04:38:03.850Z,98698.38
2018-06-24T04:40:32.955Z,98698.67
2018-06-24T04:43:02.058Z,98702.05
2018-06-24T04:45:31.426Z,98701.84
2018-06-24T04:48:00.539Z,98691.70
2018-06-24T04:50:29.647Z,98704.34
2018-06-24T04:52:58.766Z,98706.70
2018-06-24T04:55:28.262Z,98706.60
2018-06-24T04:57:57.394Z,98706.30
2018-06-24T05:00:26.510Z,98701.91
2018-06-24T05:02:55.654Z,98706.14
2018-06-24T05:05:24.765Z,98710.41
2018-06-24T05:07:54.638Z,98703.09
2018-06-24T05:10:23.758Z,98700.19
2018-06-24T05:12:53.011Z,98702.08
2018-06-24T05:15:22.199Z,98708.33
2018-06-24T05:17:51.887Z,98708.02
2018-06-24T05:20:21.318Z,98704.29
2018-06-24T05:22:50.870Z,98707.54
2018-06-24T05:25:20.255Z,98711.53
2018-06-24T05:27:49.775Z,98710.94
2018-06-24T05:30:19.086Z,98705.20
2018-06-24T05:32:48.035Z,98704.19
2018-06-24T05:35:17.191Z,98700.58
2018-06-24T05:37:46.545Z,98702.91
2018-06-24T05:40:15.643Z,98706.42
2018-06-24T05:42:44.735Z,98705.52
2018-06-24T05:45:13.846Z,98711.14
2018-06-24T05:47:43.001Z,98708.69
2018-06-24T05:50:12.115Z,98707.27
2018-06-24T05:52:41.618Z,98708.41
2018-06-24T05:55:11.055Z,98705.72
2018-06-24T05:57:40.353Z,98698.97
2018-06-24T06:00:11.707Z,98691.99
2018-06-24T06:02:41.254Z,98702.06
2018-06-24T06:05:10.466Z,98695.70
2018-06-24T06:07:39.581Z,98700.28
2018-06-24T06:10:08.729Z,98695.83
2018-06-24T06:12:38.498Z,98694.28
2018-06-24T06:15:07.594Z,98695.17
2018-06-24T06:17:36.719Z,98699.10
2018-06-24T06:20:07.339Z,98707.83
2018-06-24T06:22:36.462Z,98703.17
2018-06-24T06:25:06.000Z,98709.28
2018-06-24T06:27:35.242Z,98707.78
2018-06-24T06:30:04.834Z,98706.45
2018-06-24T06:32:33.879Z,98706.73
2018-06-24T06:35:03.565Z,98704.91
2018-06-24T06:37:32.731Z,98711.13
2018-06-24T06:40:01.886Z,98700.83
2018-06-24T06:42:30.982Z,98702.20
2018-06-24T06:45:00.258Z,98702.78
2018-06-24T06:47:29.270Z,98699.98
2018-06-24T06:50:00.036Z,98701.27
2018-06-24T06:52:29.416Z,98702.84
2018-06-24T06:54:58.543Z,98703.09
2018-06-24T06:57:27.862Z,98698.17
2018-06-24T06:59:57.146Z,98698.38
2018-06-24T07:02:26.943Z,98700.52
2018-06-24T07:04:56.963Z,98696.84
2018-06-24T07:07:26.095Z,98697.58
2018-06-24T07:09:55.190Z,98701.36
2018-06-24T07:12:24.910Z,98699.81
2018-06-24T07:14:54.202Z,98698.61
2018-06-24T07:17:23.319Z,98691.13
2018-06-24T07:19:52.422Z,98693.72
2018-06-24T07:22:23.043Z,98681.13
2018-06-24T07:24:54.671Z,98679.90
2018-06-24T07:27:29.668Z,98683.03
2018-06-24T07:29:58.758Z,98680.92
2018-06-24T07:32:29.301Z,98676.22
2018-06-24T07:34:58.406Z,98672.91
2018-06-24T07:37:28.249Z,98670.02
2018-06-24T07:39:58.243Z,98680.25
2018-06-24T07:42:28.179Z,98680.72
2018-06-24T07:44:56.821Z,98672.59
2018-06-24T07:47:26.154Z,98672.73
2018-06-24T07:49:57.031Z,98674.23
2018-06-24T07:52:26.330Z,98673.19
2018-06-24T07:54:55.566Z,98667.05
2018-06-24T07:57:24.899Z,98668.05
2018-06-24T07:59:54.235Z,98667.75
2018-06-24T08:02:24.018Z,98664.86
2018-06-24T08:04:53.279Z,98663.84
2018-06-24T08:07:24.155Z,98659.59
2018-06-24T08:09:53.294Z,98662.47
2018-06-24T08:12:22.431Z,98661.30
2018-06-24T08:14:51.599Z,98666.87
2018-06-24T08:17:21.184Z,98662.44
2018-06-24T08:19:50.450Z,98668.88
2018-06-24T08:22:20.219Z,98672.63
2018-06-24T08:24:49.556Z,98659.48
2018-06-24T08:27:19.186Z,98669.05
2018-06-24T08:29:48.546Z,98659.53
2018-06-24T08:32:17.906Z,98654.09
2018-06-24T08:34:47.335Z,98651.22
2018-06-24T08:37:16.758Z,98647.09
2018-06-24T08:39:46.042Z,98646.24
2018-06-24T08:42:15.371Z,98646.08
2018-06-24T08:44:44.771Z,98644.19
2018-06-24T08:47:14.493Z,98648.81
2018-06-24T08:49:45.239Z,98650.78
2018-06-24T08:52:14.504Z,98652.19
2018-06-24T08:54:44.219Z,98653.57
2018-06-24T08:57:13.647Z,98654.05
2018-06-24T08:59:43.207Z,98653.27
2018-06-24T09:02:12.571Z,98658.95
2018-06-24T09:04:43.799Z,98659.46
2018-06-24T09:07:13.186Z,98658.06
2018-06-24T09:09:42.866Z,98656.08
2018-06-24T09:12:12.194Z,98653.75
2018-06-24T09:14:42.351Z,98655.80
2018-06-24T09:17:12.543Z,98658.38
2018-06-24T09:19:42.024Z,98655.04
2018-06-24T09:22:11.431Z,98655.75
2018-06-24T09:24:40.806Z,98654.75
2018-06-24T09:27:10.048Z,98649.88
2018-06-24T09:29:39.140Z,98655.36
2018-06-24T09:32:08.950Z,98646.49
2018-06-24T09:34:40.382Z,98642.80
2018-06-24T09:37:09.506Z,98643.80
2018-06-24T09:39:39.349Z,98639.29
2018-06-24T09:42:09.314Z,98639.99
2018-06-24T09:44:38.449Z,98635.05
2018-06-24T09:47:07.554Z,98635.88
2018-06-24T09:49:36.670Z,98627.95
2018-06-24T09:52:06.539Z,98626.55
2018-06-24T09:54:36.391Z,98628.50
2018-06-24T09:57:05.519Z,98623.64
2018-06-24T09:59:34.775Z,98620.37
2018-06-24T10:02:04.100Z,98624.05
2018-06-24T10:04:33.263Z,98620.84
2018-06-24T10:07:02.487Z,98612.17
2018-06-24T10:09:31.611Z,98616.38
2018-06-24T10:12:00.830Z,98609.87
2018-06-24T10:14:30.483Z,98607.92
2018-06-24T10:16:59.930Z,98606.62
2018-06-24T10:19:29.326Z,98607.08
2018-06-24T10:21:59.417Z,98603.69
2018-06-24T10:24:28.527Z,98600.41
2018-06-24T10:26:57.864Z,98606.08
2018-06-24T10:29:27.041Z,98604.42
2018-06-24T10:31:56.050Z,98602.24
2018-06-24T10:34:25.190Z,98603.78
2018-06-24T10:36:54.274Z,98603.64
2018-06-24T10:39:23.391Z,98603.59
2018-06-24T10:41:52.520Z,98600.40
2018-06-24T10:44:21.854Z,98603.17
2018-06-24T10:46:51.766Z,98598.69
2018-06-24T10:49:21.494Z,98592.48
2018-06-24T10:51:51.987Z,98594.48
2018-06-24T10:54:21.322Z,98601.60
2018-06-24T10:56:51.040Z,98591.53
2018-06-24T10:59:20.363Z,98597.16
2018-06-24T11:01:51.042Z,98597.92
2018-06-24T11:04:20.378Z,98598.70
2018-06-24T11:06:50.107Z,98596.66
2018-06-24T11:09:19.875Z,98591.94
2018-06-24T11:11:49.750Z,98596.90
2018-06-24T11:14:19.810Z,98597.28
2018-06-24T11:16:49.466Z,98602.08
2018-06-24T11:19:18.627Z,98587.62
2018-06-24T11:21:47.864Z,98590.39
2018-06-24T11:24:17.078Z,98587.89
2018-06-24T11:26:46.287Z,98589.38
2018-06-24T11:29:15.738Z,98590.25
2018-06-24T11:31:45.094Z,98597.70
2018-06-24T11:34:15.154Z,98595.97
2018-06-24T11:36:44.365Z,98594.84
2018-06-24T11:39:14.001Z,98594.63
2018-06-24T11:41:43.323Z,98593.13
2018-06-24T11:44:13.040Z,98596.20
2018-06-24T11:46:42.969Z,98586.67
2018-06-24T11:49:13.289Z,98580.92
2018-06-24T11:51:42.751Z,98588.48
2018-06-24T11:54:12.106Z,98594.66
2018-06-24T11:56:41.899Z,98584.80
2018-06-24T11:59:11.774Z,98589.95
2018-06-24T12:01:41.046Z,98587.09
2018-06-24T12:04:10.157Z,98586.38
2018-06-24T12:06:39.739Z,98584.23
2018-06-24T12:09:11.542Z,98593.11
2018-06-24T12:11:41.190Z,98591.63
2018-06-24T12:14:10.694Z,98593.48
2018-06-24T12:16:39.934Z,98587.27
2018-06-24T12:19:09.226Z,98583.79
2018-06-24T12:21:38.403Z,98581.30
2018-06-24T12:24:07.534Z,98577.84
2018-06-24T12:26:36.642Z,98583.72
2018-06-24T12:29:05.747Z,98579.70
2018-06-24T12:31:36.878Z,98587.22
2018-06-24T12:34:06.438Z,98580.52
2018-06-24T12:36:39.941Z,98574.02
2018-06-24T12:39:18.371Z,98572.86
2018-06-24T12:41:47.836Z,98577.88
2018-06-24T12:44:17.731Z,98583.95
2018-06-24T12:46:47.631Z,98582.64
2018-06-24T12:49:17.568Z,98577.38
2018-06-24T12:51:48.198Z,98579.20
2018-06-24T12:54:17.434Z,98575.55
2018-06-24T12:56:47.810Z,98577.95
2018-06-24T12:59:17.520Z,98575.77
2018-06-24T13:01:50.078Z,98571.13
2018-06-24T13:04:21.227Z,98571.78
2018-06-24T13:06:50.554Z,98568.21
2018-06-24T13:09:19.922Z,98559.17
2018-06-24T13:11:49.303Z,98566.69
2018-06-24T13:14:18.650Z,98567.05
2018-06-24T13:16:48.007Z,98559.33
2018-06-24T13:19:17.447Z,98554.70
2018-06-24T13:21:46.587Z,98558.00
2018-06-24T13:24:15.722Z,98553.97
2018-06-24T13:26:44.908Z,98557.08
2018-06-24T13:29:14.015Z,98554.72
2018-06-24T13:31:43.155Z,98548.51
2018-06-24T13:34:12.290Z,98540.45
2018-06-24T13:36:41.411Z,98552.22
2018-06-24T13:39:11.506Z,98538.64
2018-06-24T13:41:40.806Z,98538.25
2018-06-24T13:44:09.886Z,98546.28
2018-06-24T13:46:38.978Z,98542.12
2018-06-24T13:49:08.111Z,98539.16
2018-06-24T13:51:37.218Z,98538.78
2018-06-24T13:54:06.358Z,98541.86
2018-06-24T13:56:35.483Z,98540.17
2018-06-24T13:59:04.806Z,98549.99
2018-06-24T14:01:33.899Z,98534.98
2018-06-24T14:04:03.441Z,98532.28
2018-06-24T14:06:32.542Z,98540.09
2018-06-24T14:09:01.694Z,98533.95
2018-06-24T14:11:34.061Z,98536.09
2018-06-24T14:14:03.224Z,98533.25
2018-06-24T14:16:32.358Z,98527.58
2018-06-24T14:19:01.750Z,98525.14
2018-06-24T14:21:31.324Z,98520.85
2018-06-24T14:24:00.574Z,98510.05
2018-06-24T14:26:29.705Z,98509.88
2018-06-24T14:28:58.921Z,98521.30
2018-06-24T14:31:27.956Z,98511.30
2018-06-24T14:33:57.059Z,98510.54
2018-06-24T14:36:26.648Z,98512.56
2018-06-24T14:38:55.715Z,98512.64
2018-06-24T14:41:24.869Z,98519.12
2018-06-24T14:43:54.007Z,98505.04
2018-06-24T14:46:23.086Z,98506.97
2018-06-24T14:48:52.946Z,98504.83
2018-06-24T14:51:22.062Z,98508.33
2018-06-24T14:53:51.199Z,98505.95
2018-06-24T14:56:20.283Z,98501.47
2018-06-24T14:58:49.376Z,98505.84
2018-06-24T15:01:18.790Z,98502.75
2018-06-24T15:03:48.047Z,98508.98
2018-06-24T15:06:17.640Z,98502.55
2018-06-24T15:08:47.026Z,98490.17
2018-06-24T15:11:16.442Z,98502.38
2018-06-24T15:13:45.646Z,98500.16
2018-06-24T15:16:14.951Z,98499.73
2018-06-24T15:18:44.278Z,98495.78
2018-06-24T15:21:13.700Z,98497.17
2018-06-24T15:23:43.303Z,98492.09
2018-06-24T15:26:12.574Z,98486.63
2018-06-24T15:28:42.359Z,98498.30
2018-06-24T15:31:11.759Z,98503.25
2018-06-24T15:33:41.643Z,98492.61
2018-06-24T15:36:10.971Z,98490.16
2018-06-24T15:38:40.675Z,98489.47
2018-06-24T15:41:10.009Z,98483.66
2018-06-24T15:43:39.346Z,98483.49
2018-06-24T15:46:08.771Z,98482.44
2018-06-24T15:48:38.745Z,98483.69
2018-06-24T15:51:08.615Z,98488.28
2018-06-24T15:53:38.517Z,98486.30
2018-06-24T15:56:08.442Z,98480.61
2018-06-24T15:58:37.882Z,98478.53
2018-06-24T16:01:07.287Z,98474.65
2018-06-24T16:03:37.341Z,98469.19
2018-06-24T16:06:07.614Z,98469.16
2018-06-24T16:08:36.742Z,98466.50
2018-06-24T16:11:06.056Z,98458.89
2018-06-24T16:13:35.235Z,98461.27
2018-06-24T16:16:04.313Z,98462.36
2018-06-24T16:18:33.446Z,98463.92
2018-06-24T16:21:02.803Z,98463.66
2018-06-24T16:23:31.722Z,98471.72
2018-06-24T16:26:00.975Z,98461.13
2018-06-24T16:28:30.275Z,98463.16
2018-06-24T16:30:59.595Z,98464.45
2018-06-24T16:33:28.879Z,98459.63
2018-06-24T16:35:58.186Z,98464.45
2018-06-24T16:38:27.959Z,98463.50
2018-06-24T16:40:57.202Z,98463.58
2018-06-24T16:43:27.046Z,98462.13
2018-06-24T16:45:56.250Z,98456.79
2018-06-24T16:48:25.975Z,98453.43
2018-06-24T16:50:55.294Z,98455.28
2018-06-24T16:53:25.818Z,98457.41
2018-06-24T16:55:55.138Z,98458.27
2018-06-24T16:58:24.450Z,98455.89
2018-06-24T17:00:54.224Z,98452.69
2018-06-24T17:03:23.336Z,98451.77
2018-06-24T17:05:52.807Z,98453.89
2018-06-24T17:08:21.914Z,98452.11
2018-06-24T17:10:51.149Z,98446.39
2018-06-24T17:13:20.234Z,98452.86
2018-06-24T17:15:49.346Z,98446.70
2018-06-24T17:18:18.452Z,98444.92
2018-06-24T17:20:47.582Z,98451.38
2018-06-24T17:23:16.698Z,98461.39
2018-06-24T17:25:45.622Z,98454.14
2018-06-24T17:28:14.766Z,98453.20
2018-06-24T17:30:43.886Z,98455.77
2018-06-24T17:33:13.038Z,98460.27
2018-06-24T17:35:42.136Z,98458.27
2018-06-24T17:38:11.246Z,98456.38
2018-06-24T17:40:40.355Z,98454.46
2018-06-24T17:43:09.510Z,98451.12
2018-06-24T17:45:38.652Z,98454.67
2018-06-24T17:48:07.767Z,98450.95
2018-06-24T17:50:37.002Z,98453.05
2018-06-24T17:53:06.546Z,98453.75
2018-06-24T17:55:35.666Z,98452.19
2018-06-24T17:58:05.087Z,98450.72
2018-06-24T18:00:34.198Z,98446.63
2018-06-24T18:03:03.490Z,98444.13
2018-06-24T18:05:32.933Z,98448.20
2018-06-24T18:08:02.312Z,98448.99
2018-06-24T18:10:31.968Z,98448.69
2018-06-24T18:13:01.275Z,98446.39
2018-06-24T18:15:30.587Z,98447.23
2018-06-24T18:17:59.930Z,98450.98
2018-06-24T18:20:30.108Z,98449.09
2018-06-24T18:22:59.820Z,98443.08
2018-06-24T18:25:29.149Z,98449.84
2018-06-24T18:27:58.541Z,98452.53
2018-06-24T18:30:28.042Z,98444.36
2018-06-24T18:32:57.589Z,98444.96
2018-06-24T18:35:27.079Z,98446.82
2018-06-24T18:37:56.947Z,98450.05
2018-06-24T18:40:26.550Z,98446.83
2018-06-24T18:42:56.479Z,98454.23
2018-06-24T18:45:25.898Z,98450.52
2018-06-24T18:47:56.155Z,98457.19
2018-06-24T18:50:25.698Z,98451.20
2018-06-24T18:52:59.325Z,98455.02
2018-06-24T18:55:28.741Z,98459.41
2018-06-24T18:57:57.878Z,98461.68
2018-06-24T19:00:27.058Z,98459.47
2018-06-24T19:02:56.918Z,98462.10
2018-06-24T19:05:25.970Z,98461.25
2018-06-24T19:07:55.109Z,98459.38
2018-06-24T19:10:24.505Z,98459.84
2018-06-24T19:12:53.986Z,98458.04
2018-06-24T19:15:23.091Z,98457.67
2018-06-24T19:17:54.709Z,98461.55
2018-06-24T19:20:27.890Z,98452.41
2018-06-24T19:22:57.034Z,98449.62
2018-06-24T19:25:26.852Z,98448.53
2018-06-24T19:27:55.991Z,98457.45
2018-06-24T19:30:26.431Z,98455.81
2018-06-24T19:32:56.336Z,98462.24
2018-06-24T19:35:25.747Z,98463.64
2018-06-24T19:37:56.122Z,98468.23
2018-06-24T19:40:25.684Z,98458.37
2018-06-24T19:42:55.538Z,98462.99
2018-06-24T19:45:24.882Z,98460.11
2018-06-24T19:47:54.527Z,98464.67
2018-06-24T19:50:24.247Z,98471.58
2018-06-24T19:52:53.587Z,98474.96
2018-06-24T19:55:22.822Z,98477.64
2018-06-24T19:57:52.187Z,98477.13
2018-06-24T20:00:21.618Z,98482.59
2018-06-24T20:02:50.954Z,98484.33
2018-06-24T20:05:20.318Z,98485.16
2018-06-24T20:07:49.795Z,98491.87
2018-06-24T20:10:19.062Z,98491.48
2018-06-24T20:12:48.481Z,98489.75
2018-06-24T20:15:17.770Z,98491.64
2018-06-24T20:17:47.653Z,98490.03
2018-06-24T20:20:18.486Z,98484.36
2018-06-24T20:22:47.837Z,98495.51
2018-06-24T20:25:17.551Z,98492.03
2018-06-24T20:27:47.336Z,98495.84
2018-06-24T20:30:16.426Z,98494.02
2018-06-24T20:32:45.550Z,98490.20
2018-06-24T20:35:14.695Z,98491.95
2018-06-24T20:37:43.827Z,98497.58
2018-06-24T20:40:13.638Z,98488.86
2018-06-24T20:42:42.755Z,98492.42
2018-06-24T20:45:11.862Z,98495.30
2018-06-24T20:47:41.738Z,98492.73
2018-06-24T20:50:10.907Z,98496.30
2018-06-24T20:52:40.015Z,98494.73
2018-06-24T20:55:09.142Z,98501.95
2018-06-24T20:57:38.264Z,98501.63
2018-06-24T21:00:07.681Z,98500.09
2018-06-24T21:02:37.178Z,98497.77
2018-06-24T21:05:06.398Z,98497.77
2018-06-24T21:07:35.610Z,98502.64
2018-06-24T21:10:04.958Z,98505.38
2018-06-24T21:12:34.110Z,98508.73
2018-06-24T21:15:03.459Z,98504.53
2018-06-24T21:17:32.635Z,98506.53
2018-06-24T21:20:01.711Z,98505.25
2018-06-24T21:22:30.798Z,98502.55
2018-06-24T21:24:59.942Z,98512.31
2018-06-24T21:27:29.094Z,98510.72
2018-06-24T21:29:58.833Z,98506.59
2018-06-24T21:32:27.947Z,98504.73
2018-06-24T21:34:57.034Z,98506.73
2018-06-24T21:37:27.007Z,98498.67
2018-06-24T21:39:56.341Z,98504.06
2018-06-24T21:42:25.435Z,98506.13
2018-06-24T21:44:54.654Z,98504.51
2018-06-24T21:47:24.154Z,98503.94
2018-06-24T21:49:53.246Z,98508.78
2018-06-24T21:52:22.416Z,98510.18
2018-06-24T21:54:51.557Z,98507.46
2018-06-24T21:57:20.687Z,98506.25
2018-06-24T21:59:49.807Z,98505.48
2018-06-24T22:02:18.910Z,98499.02
2018-06-24T22:04:48.059Z,98501.45
2018-06-24T22:07:17.171Z,98508.33
2018-06-24T22:09:46.271Z,98510.16
2018-06-24T22:12:15.578Z,98512.13
2018-06-24T22:14:45.158Z,98509.89
2018-06-24T22:17:22.154Z,98515.92
2018-06-24T22:19:53.300Z,98516.35
2018-06-24T22:22:23.142Z,98522.92
2018-06-24T22:24:52.991Z,98523.56
2018-06-24T22:27:22.974Z,98530.14
2018-06-24T22:29:52.714Z,98520.81
2018-06-24T22:32:22.646Z,98526.66
2018-06-24T22:34:51.895Z,98529.44
2018-06-24T22:37:21.638Z,98530.61
2018-06-24T22:39:51.011Z,98531.82
2018-06-24T22:42:20.350Z,98530.88
2018-06-24T22:44:50.326Z,98530.97
2018-06-24T22:47:20.446Z,98528.40
2018-06-24T22:49:49.754Z,98531.95
2018-06-24T22:52:19.522Z,98533.23
2018-06-24T22:54:49.985Z,98536.95
2018-06-24T22:57:19.101Z,98539.95
2018-06-24T23:00:11.898Z,98542.75
2018-06-24T23:02:41.991Z,98551.30
2018-06-24T23:05:11.866Z,98547.24
2018-06-24T23:07:42.330Z,98550.83
2018-06-24T23:10:11.843Z,98545.68
2018-06-24T23:12:40.949Z,98557.73
2018-06-24T23:15:11.058Z,98554.88
2018-06-24T23:17:40.477Z,98561.66
2018-06-24T23:20:10.095Z,98558.81
2018-06-24T23:22:39.783Z,98559.32
2018-06-24T23:25:08.886Z,98560.37
2018-06-24T23:27:38.761Z,98565.37
2018-06-24T23:30:08.291Z,98558.08
2018-06-24T23:32:37.389Z,98554.93
2018-06-24T23:35:06.790Z,98558.94
2018-06-24T23:37:36.046Z,98550.02
2018-06-24T23:40:05.367Z,98561.70
2018-06-24T23:42:34.479Z,98566.64
2018-06-24T23:45:04.183Z,98561.42
2018-06-24T23:47:33.502Z,98557.91
2018-06-24T23:50:03.169Z,98557.05
2018-06-24T23:52:33.025Z,98559.31
2018-06-24T23:55:02.386Z,98550.97
2018-06-24T23:57:32.054Z,98554.02
